Time,TemperatureF,DewpointF,PressureIn,WindDirection,WindDirectionDegrees,WindSpeedMPH,WindSpeedGustMPH,Humidity,HourlyPrecipIn,Conditions,Clouds,dailyrainin,SolarRadiationWatts/m^2,SoftwareType,DateUTC
2013-02-13 00:00:00,24.6,22.0,29.88,South,177,0.0,8.0,88,0.00,,,0.00,0,weatherlink.com 1.10,2013-02-13 06:00:00,
2013-02-13 00:15:00,24.5,22.0,29.88,SSW,205,2.0,7.0,88,0.00,,,0.00,0,weatherlink.com 1.10,2013-02-13 06:15:00,
2013-02-13 00:31:00,24.5,22.0,29.88,South,174,1.0,6.0,89,0.00,,,0.00,0,weatherlink.com 1.10,2013-02-13 06:31:00,
2013-02-13 00:46:00,24.3,21.0,29.87,South,185,3.0,6.0,88,0.00,,,0.00,0,weatherlink.com 1.10,2013-02-13 06:46:00,
2013-02-13 01:01:00,24.2,22.0,29.87,South,180,2.0,6.0,89,0.00,,,0.00,0,weatherlink.com 1.10,2013-02-13 07:01:00,
2013-02-13 01:16:00,24.2,22.0,29.86,SSE,165,1.0,7.0,89,0.00,,,0.00,0,weatherlink.com 1.10,2013-02-13 07:16:00,
2013-02-13 01:31:00,24.1,21.0,29.86,South,171,3.0,8.0,89,0.00,,,0.00,0,weatherlink.com 1.10,2013-02-13 07:31:00,
2013-02-13 01:46:00,24.2,22.0,29.86,SSW,196,2.0,7.0,89,0.00,,,0.00,0,weatherlink.com 1.10,2013-02-13 07:46:00,
2013-02-13 02:01:00,24.3,22.0,29.86,South,186,0.0,7.0,89,0.00,,,0.00,0,weatherlink.com 1.10,2013-02-13 08:01:00,
2013-02-13 02:16:00,24.3,22.0,29.85,South,190,1.0,6.0,89,0.00,,,0.00,0,weatherlink.com 1.10,2013-02-13 08:16:00,
2013-02-13 02:31:00,24.2,22.0,29.84,South,186,4.0,6.0,89,0.00,,,0.00,0,weatherlink.com 1.10,2013-02-13 08:31:00,
2013-02-13 02:46:00,24.2,22.0,29.83,South,183,5.0,8.0,90,0.00,,,0.00,0,weatherlink.com 1.10,2013-02-13 08:46:00,
2013-02-13 03:01:00,24.3,22.0,29.83,SSE,165,2.0,7.0,90,0.00,,,0.00,0,weatherlink.com 1.10,2013-02-13 09:01:00,
2013-02-13 03:16:00,24.4,22.0,29.82,SSW,211,2.0,7.0,90,0.00,,,0.00,0,weatherlink.com 1.10,2013-02-13 09:16:00,
2013-02-13 03:31:00,24.3,22.0,29.82,South,182,5.0,8.0,90,0.00,,,0.00,0,weatherlink.com 1.10,2013-02-13 09:31:00,
2013-02-13 03:46:00,24.1,22.0,29.82,South,180,2.0,8.0,90,0.00,,,0.00,0,weatherlink.com 1.10,2013-02-13 09:46:00,
2013-02-13 04:01:00,24.0,22.0,29.81,South,175,3.0,9.0,90,0.00,,,0.00,0,weatherlink.com 1.10,2013-02-13 10:01:00,
2013-02-13 04:16:00,24.0,22.0,29.81,South,188,1.0,8.0,90,0.00,,,0.00,0,weatherlink.com 1.10,2013-02-13 10:16:00,
2013-02-13 04:31:00,23.9,21.0,29.81,SSW,192,2.0,6.0,90,0.00,,,0.00,0,weatherlink.com 1.10,2013-02-13 10:31:00,
2013-02-13 04:46:00,23.8,21.0,29.81,South,190,2.0,7.0,90,0.00,,,0.00,0,weatherlink.com 1.10,2013-02-13 10:46:00,
2013-02-13 05:02:00,23.6,21.0,29.80,South,185,3.0,6.0,90,0.00,,,0.00,0,weatherlink.com 1.10,2013-02-13 11:02:00,
2013-02-13 05:17:00,23.4,21.0,29.80,South,182,3.0,7.0,90,0.00,,,0.00,0,weatherlink.com 1.10,2013-02-13 11:17:00,
2013-02-13 05:31:00,23.2,21.0,29.80,South,182,2.0,7.0,91,0.00,,,0.00,0,weatherlink.com 1.10,2013-02-13 11:31:00,
2013-02-13 05:46:00,23.1,21.0,29.79,South,188,4.0,7.0,91,0.00,,,0.00,0,weatherlink.com 1.10,2013-02-13 11:46:00,
2013-02-13 06:01:00,23.0,21.0,29.79,South,190,4.0,9.0,91,0.00,,,0.00,0,weatherlink.com 1.10,2013-02-13 12:01:00,
2013-02-13 06:16:00,22.9,21.0,29.79,South,180,3.0,7.0,91,0.00,,,0.00,0,weatherlink.com 1.10,2013-02-13 12:16:00,
2013-02-13 06:31:00,22.7,21.0,29.79,South,186,2.0,6.0,91,0.00,,,0.00,0,weatherlink.com 1.10,2013-02-13 12:31:00,
2013-02-13 06:46:00,22.6,20.0,29.78,South,182,1.0,7.0,91,0.00,,,0.00,0,weatherlink.com 1.10,2013-02-13 12:46:00,
2013-02-13 07:17:00,22.9,21.0,29.78,South,175,4.0,7.0,92,0.00,,,0.00,18,weatherlink.com 1.10,2013-02-13 13:17:00,
2013-02-13 07:32:00,23.2,21.0,29.78,South,175,5.0,8.0,92,0.00,,,0.00,26,weatherlink.com 1.10,2013-02-13 13:32:00,
2013-02-13 07:47:00,23.6,22.0,29.78,South,181,6.0,7.0,92,0.00,,,0.00,33,weatherlink.com 1.10,2013-02-13 13:47:00,
2013-02-13 08:02:00,24.5,23.0,29.78,South,182,3.0,10.0,92,0.00,,,0.00,39,weatherlink.com 1.10,2013-02-13 14:02:00,
2013-02-13 08:17:00,25.3,23.0,29.78,South,175,1.0,6.0,91,0.00,,,0.00,44,weatherlink.com 1.10,2013-02-13 14:17:00,
2013-02-13 08:32:00,25.9,24.0,29.79,SSW,192,2.0,6.0,91,0.00,,,0.00,49,weatherlink.com 1.10,2013-02-13 14:32:00,
2013-02-13 08:47:00,26.9,24.0,29.78,West,272,0.0,7.0,90,0.00,,,0.00,53,weatherlink.com 1.10,2013-02-13 14:47:00,
2013-02-13 09:02:00,27.8,25.0,29.78,South,178,1.0,4.0,89,0.00,,,0.00,54,weatherlink.com 1.10,2013-02-13 15:02:00,
2013-02-13 09:17:00,28.9,26.0,29.78,East,101,2.0,5.0,88,0.00,,,0.00,197,weatherlink.com 1.10,2013-02-13 15:17:00,
2013-02-13 09:32:00,30.2,27.0,29.77,SSW,192,0.0,4.0,86,0.00,,,0.00,367,weatherlink.com 1.10,2013-02-13 15:32:00,
2013-02-13 09:47:00,31.7,27.0,29.77,SSE,167,3.0,10.0,84,0.00,,,0.00,339,weatherlink.com 1.10,2013-02-13 15:47:00,
2013-02-13 10:02:00,32.5,28.0,29.76,SSW,213,3.0,9.0,82,0.00,,,0.00,401,weatherlink.com 1.10,2013-02-13 16:02:00,
2013-02-13 10:17:00,33.0,28.0,29.76,SW,233,1.0,7.0,82,0.00,,,0.00,237,weatherlink.com 1.10,2013-02-13 16:17:00,
2013-02-13 10:32:00,34.1,29.0,29.76,South,186,0.0,5.0,81,0.00,,,0.00,204,weatherlink.com 1.10,2013-02-13 16:32:00,
2013-02-13 10:47:00,35.3,29.0,29.76,SSE,153,2.0,5.0,79,0.00,,,0.00,480,weatherlink.com 1.10,2013-02-13 16:47:00,
2013-02-13 11:02:00,36.2,30.0,29.76,South,182,1.0,6.0,77,0.00,,,0.00,288,weatherlink.com 1.10,2013-02-13 17:02:00,
2013-02-13 11:17:00,37.1,30.0,29.76,WNW,290,0.0,6.0,76,0.00,,,0.00,381,weatherlink.com 1.10,2013-02-13 17:17:00,
2013-02-13 11:32:00,37.8,30.0,29.75,SSE,165,8.0,11.0,73,0.00,,,0.00,540,weatherlink.com 1.10,2013-02-13 17:32:00,
2013-02-13 11:47:00,38.2,30.0,29.75,SE,131,1.0,6.0,73,0.00,,,0.00,555,weatherlink.com 1.10,2013-02-13 17:47:00,
2013-02-13 12:03:00,38.6,30.0,29.74,South,190,2.0,6.0,72,0.00,,,0.00,485,weatherlink.com 1.10,2013-02-13 18:03:00,
2013-02-13 12:18:00,39.3,30.0,29.73,South,186,2.0,6.0,70,0.00,,,0.00,545,weatherlink.com 1.10,2013-02-13 18:18:00,
2013-02-13 12:33:00,39.6,31.0,29.72,South,190,4.0,9.0,70,0.00,,,0.00,269,weatherlink.com 1.10,2013-02-13 18:33:00,
2013-02-13 12:49:00,39.9,30.0,29.72,ESE,103,1.0,5.0,69,0.00,,,0.00,283,weatherlink.com 1.10,2013-02-13 18:49:00,
2013-02-13 13:03:00,40.0,30.0,29.72,SSE,161,1.0,5.0,68,0.00,,,0.00,279,weatherlink.com 1.10,2013-02-13 19:03:00,
2013-02-13 13:33:00,40.4,31.0,29.70,SE,135,1.0,8.0,68,0.00,,,0.00,320,weatherlink.com 1.10,2013-02-13 19:33:00,
2013-02-13 13:48:00,41.1,31.0,29.70,South,188,2.0,5.0,67,0.00,,,0.00,287,weatherlink.com 1.10,2013-02-13 19:48:00,
2013-02-13 14:03:00,41.5,30.0,29.70,West,276,0.0,5.0,65,0.00,,,0.00,330,weatherlink.com 1.10,2013-02-13 20:03:00,
2013-02-13 14:18:00,40.8,30.0,29.70,SSE,162,3.0,7.0,66,0.00,,,0.00,214,weatherlink.com 1.10,2013-02-13 20:18:00,
2013-02-13 14:33:00,40.5,30.0,29.70,South,191,0.0,5.0,67,0.00,,,0.00,192,weatherlink.com 1.10,2013-02-13 20:33:00,
2013-02-13 14:48:00,40.2,30.0,29.70,North,355,0.0,6.0,67,0.00,,,0.00,171,weatherlink.com 1.10,2013-02-13 20:48:00,
2013-02-13 15:03:00,40.3,30.0,29.70,South,177,1.0,5.0,67,0.00,,,0.00,156,weatherlink.com 1.10,2013-02-13 21:03:00,
2013-02-13 15:18:00,40.0,31.0,29.70,SSW,194,2.0,7.0,69,0.00,,,0.00,144,weatherlink.com 1.10,2013-02-13 21:18:00,
2013-02-13 15:33:00,40.1,31.0,29.70,SSE,161,1.0,6.0,69,0.00,,,0.00,121,weatherlink.com 1.10,2013-02-13 21:33:00,
2013-02-13 15:48:00,40.0,31.0,29.71,NW,323,0.0,6.0,69,0.00,,,0.00,65,weatherlink.com 1.10,2013-02-13 21:48:00,
2013-02-13 16:03:00,39.7,31.0,29.70,South,183,1.0,6.0,70,0.00,,,0.00,37,weatherlink.com 1.10,2013-02-13 22:03:00,
2013-02-13 16:18:00,39.3,31.0,29.70,SSE,148,1.0,4.0,71,0.00,,,0.00,30,weatherlink.com 1.10,2013-02-13 22:18:00,
2013-02-13 16:33:00,39.0,31.0,29.70,NNW,329,1.0,5.0,72,0.00,,,0.00,47,weatherlink.com 1.10,2013-02-13 22:33:00,
2013-02-13 16:48:00,39.0,31.0,29.71,West,276,1.0,6.0,72,0.00,,,0.00,39,weatherlink.com 1.10,2013-02-13 22:48:00,
2013-02-13 17:03:00,38.4,30.0,29.71,South,190,0.0,3.0,73,0.00,,,0.00,12,weatherlink.com 1.10,2013-02-13 23:03:00,
2013-02-13 17:18:00,37.8,30.0,29.71,South,183,0.0,4.0,74,0.00,,,0.00,0,weatherlink.com 1.10,2013-02-13 23:18:00,
2013-02-13 17:33:00,37.2,30.0,29.71,SSW,192,1.0,4.0,76,0.00,,,0.00,0,weatherlink.com 1.10,2013-02-13 23:33:00,
2013-02-13 17:48:00,36.6,30.0,29.71,SSE,166,1.0,3.0,78,0.00,,,0.00,0,weatherlink.com 1.10,2013-02-13 23:48:00,
2013-02-13 18:03:00,36.2,30.0,29.72,South,173,0.0,4.0,79,0.00,,,0.00,0,weatherlink.com 1.10,2013-02-14 00:03:00,
2013-02-13 18:18:00,35.5,30.0,29.72,South,184,0.0,2.0,80,0.00,,,0.00,0,weatherlink.com 1.10,2013-02-14 00:18:00,
2013-02-13 18:33:00,35.0,30.0,29.72,West,266,0.0,4.0,81,0.00,,,0.00,0,weatherlink.com 1.10,2013-02-14 00:33:00,
2013-02-13 18:48:00,34.6,30.0,29.72,SSE,155,1.0,4.0,82,0.00,,,0.00,0,weatherlink.com 1.10,2013-02-14 00:48:00,
2013-02-13 19:03:00,34.3,30.0,29.73,West,275,0.0,3.0,83,0.00,,,0.00,0,weatherlink.com 1.10,2013-02-14 01:03:00,
2013-02-13 19:18:00,34.1,30.0,29.73,SSE,168,0.0,3.0,83,0.00,,,0.00,0,weatherlink.com 1.10,2013-02-14 01:18:00,
2013-02-13 19:34:00,33.7,29.0,29.73,SSW,209,1.0,2.0,84,0.00,,,0.00,0,weatherlink.com 1.10,2013-02-14 01:34:00,
2013-02-13 19:48:00,33.7,29.0,29.72,NNE,12,1.0,3.0,84,0.00,,,0.00,0,weatherlink.com 1.10,2013-02-14 01:48:00,
2013-02-13 20:03:00,33.6,29.0,29.72,East,86,1.0,3.0,84,0.00,,,0.00,0,weatherlink.com 1.10,2013-02-14 02:03:00,
2013-02-13 20:18:00,33.3,29.0,29.72,SSW,198,0.0,3.0,84,0.00,,,0.00,0,weatherlink.com 1.10,2013-02-14 02:18:00,
2013-02-13 20:33:00,33.3,29.0,29.72,WNW,289,1.0,3.0,84,0.00,,,0.00,0,weatherlink.com 1.10,2013-02-14 02:33:00,
2013-02-13 20:48:00,33.3,29.0,29.72,South,174,0.0,3.0,85,0.00,,,0.00,0,weatherlink.com 1.10,2013-02-14 02:48:00,
2013-02-13 21:03:00,33.4,29.0,29.72,SSE,149,1.0,2.0,85,0.00,,,0.00,0,weatherlink.com 1.10,2013-02-14 03:03:00,
2013-02-13 21:18:00,33.4,29.0,29.72,ESE,105,1.0,4.0,85,0.00,,,0.00,0,weatherlink.com 1.10,2013-02-14 03:18:00,
2013-02-13 21:34:00,33.4,29.0,29.71,South,181,0.0,3.0,85,0.00,,,0.00,0,weatherlink.com 1.10,2013-02-14 03:34:00,
2013-02-13 21:49:00,33.5,30.0,29.72,SSE,166,0.0,4.0,86,0.00,,,0.00,0,weatherlink.com 1.10,2013-02-14 03:49:00,
2013-02-13 22:03:00,33.5,30.0,29.71,South,190,2.0,3.0,86,0.00,,,0.00,0,weatherlink.com 1.10,2013-02-14 04:03:00,
2013-02-13 22:19:00,33.5,30.0,29.71,South,171,0.0,2.0,86,0.00,,,0.00,0,weatherlink.com 1.10,2013-02-14 04:19:00,
2013-02-13 23:04:00,34.2,31.0,29.71,South,178,1.0,3.0,86,0.00,,,0.00,0,weatherlink.com 1.10,2013-02-14 05:04:00,
2013-02-13 23:18:00,34.1,30.0,29.71,SSW,198,0.0,5.0,86,0.00,,,0.00,0,weatherlink.com 1.10,2013-02-14 05:18:00,
2013-02-13 23:34:00,34.3,31.0,29.70,South,180,0.0,6.0,86,0.00,,,0.00,0,weatherlink.com 1.10,2013-02-14 05:34:00,
2013-02-13 23:49:00,34.3,31.0,29.70,South,178,2.0,4.0,86,0.00,,,0.00,0,weatherlink.com 1.10,2013-02-14 05:49:00,